Pagrindinis puslapis
METAR-TAF:

METAR-TAF

Oro uostai :

Japas, Mikronezija

platuma: 09-29N, ilguma: 138-05E, Aukštis: 28 m

Dabartinis oras

Ataskaita buvo paskelbta 1 valandą ir 13 minutes, ne 04:50 UTC
Vėjas 8 kt iš Rytų/Šiaurės Rytų
Temperatūra 30°C
Drėgmė 84%
Slėgis 1009 hPa
Matomumas: 19.3 km
Mažai debesys ne aukštis 1600 ft
Su prošvaistėmis ne aukštis 13000 ft
Su prošvaistėmis ne aukštis 30000 ft

METAR: PTYA 120450Z 07008KT 12SM FEW016 BKN130 BKN300 30/27 A2980 RMK SLP093 T02980267

Laikas: 16:03 (06:03 UTC)

Prognozė

Ataskaita buvo paskelbta 24 minutes, ne 05:39 UTC
Prognozė galioja nuo 12 metu 06 UTC su 13 metu 06 UTC
Vėjas 11 kt iš Rytų/Šiaurės Rytų
Matomumas: 10 km
Išsisklaidę debesys ne aukštis 1600 ft
Išsisklaidę debesys ne aukštis 5000 ft
Liūtis kaimynystėje
Nuo 13 metu 0100 UTC
Vėjas 15 kt iš Rytų/Šiaurės Rytų
Matomumas: 10 km
Išsisklaidę debesys ne aukštis 1600 ft
Išsisklaidę debesys ne aukštis 5000 ft
Liūtis kaimynystėje

TAF: PTYA 120539Z 1206/1306 07011KT P6SM VCSH SCT016 SCT050 FM130100 07015KT P6SM VCSH SCT016 SCT050

Orai ataskaitas ir orų prognozės (METAR, TAF).

turimą stotys yra geltonos ir raudonos taškus žemėlapyje.

Perkelti pele per norėdami pamatyti stoties vardą.

Tada spustelėkite, norėdami matyti oro stebėjimo ir prognozės.

Norėdami pakeisti žemėlapį: spustelėkite ant žalios mygtukų su juodo kryžiaus žemyn,; žalią mygtuką su brūkšneliu, jei norite nutolinti; arba žalių rodyklių gretimoms žemėlapius.


METAR-TAF: